Nortonville, Kansas
Current Conditions -  °F | °C
As of 9:52 AM on Thursday 27 Nov 2014 (Local Time) from KLWC Reporting Station
Haze Haze  
Wind Chill: 26°   Ceiling: 1500
Heat Index: 26°   Visibility: 3mi
Dew Point: 19°   Wind: 0mph
Humidity: 75%   Direction: NA
Pressure: 30.55"   Gusts: NA
Location:  39.42°N, 95.33°W
Report Text: KLWC 271552Z AUTO 00000KT 3SM HZ BKN015 OVC085 M03/M07 A3055 RMK AO2 SLP355 T10331072
Loading
Personal Weather Stations






























Interactive Weather Map New forecast layout! Learn more

10-Day Weather Forecast

Advertisements
Track Severe Weather on mobile